Aérodrome :
LOGIN :

S'inscrire | Disclaimer

   EN    FR    IT 

 










Légende :    VFR   VFR Marginal   IFR   IFR Intensif   IFR Très Intensif
Visi : 
Plafond : 
>= 8 km
>= 3000ft
5 à 8 km
1000 à 3000 ft
1500m à 5 km
500 à 1000 ft
800 à 1500m
200 à 500 ft
< 800m
< 200 ft
Symboles :   Orages  Brouillard  Fortes neiges  Fortes précipitations  Vent > 20 kt
SIGMETs :   Divers  Orages  Givrage  Turbulence  Onde Orograph.  Cendres Volcan.







- Altitude de l'aérodrome : 33 ft
- Code IATA : MHZ


EGUN - RAF Mildenhall

DERNIER METAR :
  • 152156Z AUTO 21010KT 9999 OVC036 19/18 A2993 RMK AO2 SLP138 T01910181 $

METARs EXPIRÉS :
  • 152121Z AUTO 20009KT 9999 BKN040 19/17 A2994 RMK AO2 SLP142 $
  • 152056Z AUTO 20007KT 9999 CLR 19/17 A2994 RMK AO2 SLP142 T01910167 50003 $
  • 151956Z AUTO 22008KT 9999 SCT037 SCT044 21/17 A2994 RMK AO2 SLP142 T02060174 $

TAF TAF EGUN
Valide du 15 à 20h jusqu'au 17 à 02h UTC


152003Z 1520/1702 23009KT 9999 BKN030 QNH2992INS
BECMG 1522/1523 22009KT 9999 BKN015 QNH2991INS
BECMG 1601/1602 21012G20KT 9999 BKN008 QNH2988INS
BECMG 1606/1607 21012G20KT 8000 -SHRA BKN005 QNH2987INS
BECMG 1614/1615 26009KT 9999 NSW BKN030 QNH2990INS TX23/1520Z TN11/1620Z
Pas de NOTAMs connus pour ce terrain.



MET'MAP, la Météo Aéronautique d'un coup d'oeil ! - Copyright ORBIFLY Décembre 2007 - Disclaimer

ORBIFLY MET'MAP TEAM :

Programmation & Développement : Alexandra Zaïnal
Conception & Développement : Baudouin d'Aumeries
Co-Programmation & Développement : Marc-Olivier Méhu
Soutien technique & logistique : Manuel Goepfert

Contact : metmap@orbifly.com




SOURCES & CREDITS :

   NOAA